sensor_id;sensor_type;location;lat;lon;timestamp;P1;durP1;ratioP1;P2;durP2;ratioP2
48241;SDS011;34041;51.812;4.622;2022-12-18T00:00:48;36.95;;;24.25;;
48241;SDS011;34041;51.812;4.622;2022-12-18T00:03:49;37.97;;;23.88;;
48241;SDS011;34041;51.812;4.622;2022-12-18T00:06:49;37.50;;;24.15;;
48241;SDS011;34041;51.812;4.622;2022-12-18T00:09:50;35.17;;;24.52;;
48241;SDS011;34041;51.812;4.622;2022-12-18T00:12:50;38.47;;;24.57;;
48241;SDS011;34041;51.812;4.622;2022-12-18T00:15:50;33.83;;;22.93;;
48241;SDS011;34041;51.812;4.622;2022-12-18T00:18:52;37.33;;;24.30;;
48241;SDS011;34041;51.812;4.622;2022-12-18T00:21:52;38.28;;;23.95;;
48241;SDS011;34041;51.812;4.622;2022-12-18T00:24:52;39.67;;;26.53;;
48241;SDS011;34041;51.812;4.622;2022-12-18T00:27:53;32.37;;;23.00;;
48241;SDS011;34041;51.812;4.622;2022-12-18T00:31:03;34.20;;;23.13;;
48241;SDS011;34041;51.812;4.622;2022-12-18T00:34:03;36.78;;;22.88;;
48241;SDS011;34041;51.812;4.622;2022-12-18T00:37:03;36.40;;;24.50;;
48241;SDS011;34041;51.812;4.622;2022-12-18T00:40:04;32.90;;;22.37;;
48241;SDS011;34041;51.812;4.622;2022-12-18T00:43:04;36.13;;;22.75;;
48241;SDS011;34041;51.812;4.622;2022-12-18T00:46:05;35.40;;;22.70;;
48241;SDS011;34041;51.812;4.622;2022-12-18T00:49:05;35.70;;;23.30;;
48241;SDS011;34041;51.812;4.622;2022-12-18T00:52:06;36.53;;;23.85;;
48241;SDS011;34041;51.812;4.622;2022-12-18T00:55:06;31.17;;;22.37;;
48241;SDS011;34041;51.812;4.622;2022-12-18T00:58:07;37.47;;;23.67;;
48241;SDS011;34041;51.812;4.622;2022-12-18T01:01:07;38.33;;;25.13;;
48241;SDS011;34041;51.812;4.622;2022-12-18T01:04:08;33.38;;;22.92;;
48241;SDS011;34041;51.812;4.622;2022-12-18T01:07:08;37.67;;;24.30;;
48241;SDS011;34041;51.812;4.622;2022-12-18T01:10:10;35.03;;;22.30;;
48241;SDS011;34041;51.812;4.622;2022-12-18T01:13:11;34.08;;;24.75;;
48241;SDS011;34041;51.812;4.622;2022-12-18T01:16:12;39.53;;;23.83;;
48241;SDS011;34041;51.812;4.622;2022-12-18T01:19:12;35.40;;;23.17;;
48241;SDS011;34041;51.812;4.622;2022-12-18T01:22:13;33.00;;;21.50;;
48241;SDS011;34041;51.812;4.622;2022-12-18T01:25:13;35.33;;;23.95;;
48241;SDS011;34041;51.812;4.622;2022-12-18T01:28:13;34.10;;;22.53;;
48241;SDS011;34041;51.812;4.622;2022-12-18T01:31:15;29.63;;;20.00;;
48241;SDS011;34041;51.812;4.622;2022-12-18T01:34:16;33.80;;;22.42;;
48241;SDS011;34041;51.812;4.622;2022-12-18T01:37:16;34.97;;;22.43;;
48241;SDS011;34041;51.812;4.622;2022-12-18T01:40:16;31.73;;;23.07;;
48241;SDS011;34041;51.812;4.622;2022-12-18T01:43:16;29.92;;;21.50;;
48241;SDS011;34041;51.812;4.622;2022-12-18T01:46:17;32.00;;;20.90;;
48241;SDS011;34041;51.812;4.622;2022-12-18T01:49:17;32.33;;;21.55;;
48241;SDS011;34041;51.812;4.622;2022-12-18T01:52:18;34.10;;;21.43;;
48241;SDS011;34041;51.812;4.622;2022-12-18T01:55:20;30.65;;;20.88;;
48241;SDS011;34041;51.812;4.622;2022-12-18T01:58:23;32.15;;;20.33;;
48241;SDS011;34041;51.812;4.622;2022-12-18T02:01:24;30.63;;;22.15;;
48241;SDS011;34041;51.812;4.622;2022-12-18T02:04:26;30.83;;;21.33;;
48241;SDS011;34041;51.812;4.622;2022-12-18T02:07:38;32.70;;;21.77;;
48241;SDS011;34041;51.812;4.622;2022-12-18T02:10:57;34.17;;;22.98;;
48241;SDS011;34041;51.812;4.622;2022-12-18T02:17:07;30.08;;;20.25;;
48241;SDS011;34041;51.812;4.622;2022-12-18T02:20:16;27.50;;;19.25;;
48241;SDS011;34041;51.812;4.622;2022-12-18T02:26:19;34.60;;;20.63;;
48241;SDS011;34041;51.812;4.622;2022-12-18T02:29:21;31.95;;;19.23;;
48241;SDS011;34041;51.812;4.622;2022-12-18T02:32:26;30.35;;;21.05;;
48241;SDS011;34041;51.812;4.622;2022-12-18T02:35:27;27.45;;;19.17;;
48241;SDS011;34041;51.812;4.622;2022-12-18T02:38:29;31.90;;;20.58;;
48241;SDS011;34041;51.812;4.622;2022-12-18T02:41:30;32.60;;;22.30;;
48241;SDS011;34041;51.812;4.622;2022-12-18T02:44:31;32.00;;;21.13;;
48241;SDS011;34041;51.812;4.622;2022-12-18T02:47:32;27.33;;;19.83;;
48241;SDS011;34041;51.812;4.622;2022-12-18T02:50:34;33.10;;;21.80;;
48241;SDS011;34041;51.812;4.622;2022-12-18T02:56:38;29.10;;;19.77;;
48241;SDS011;34041;51.812;4.622;2022-12-18T02:59:41;29.83;;;20.60;;
48241;SDS011;34041;51.812;4.622;2022-12-18T03:09:02;28.92;;;19.58;;
48241;SDS011;34041;51.812;4.622;2022-12-18T03:12:08;32.60;;;21.50;;
48241;SDS011;34041;51.812;4.622;2022-12-18T03:15:27;28.83;;;20.45;;
48241;SDS011;34041;51.812;4.622;2022-12-18T03:18:38;30.23;;;21.27;;
48241;SDS011;34041;51.812;4.622;2022-12-18T03:21:45;30.60;;;20.92;;
48241;SDS011;34041;51.812;4.622;2022-12-18T03:24:47;33.40;;;21.33;;
48241;SDS011;34041;51.812;4.622;2022-12-18T03:27:49;30.58;;;20.95;;
48241;SDS011;34041;51.812;4.622;2022-12-18T03:30:52;35.08;;;21.48;;
48241;SDS011;34041;51.812;4.622;2022-12-18T03:33:55;33.30;;;21.00;;
48241;SDS011;34041;51.812;4.622;2022-12-18T03:36:57;27.90;;;18.83;;
48241;SDS011;34041;51.812;4.622;2022-12-18T03:39:57;32.35;;;20.92;;
48241;SDS011;34041;51.812;4.622;2022-12-18T03:43:08;32.25;;;21.38;;
48241;SDS011;34041;51.812;4.622;2022-12-18T03:49:36;26.52;;;18.77;;
48241;SDS011;34041;51.812;4.622;2022-12-18T03:52:40;29.42;;;19.77;;
48241;SDS011;34041;51.812;4.622;2022-12-18T03:55:42;29.02;;;20.77;;
48241;SDS011;34041;51.812;4.622;2022-12-18T03:58:43;28.65;;;19.05;;
48241;SDS011;34041;51.812;4.622;2022-12-18T04:01:46;32.95;;;22.83;;
48241;SDS011;34041;51.812;4.622;2022-12-18T04:04:47;30.45;;;20.23;;
48241;SDS011;34041;51.812;4.622;2022-12-18T04:07:49;29.27;;;20.08;;
48241;SDS011;34041;51.812;4.622;2022-12-18T04:10:50;25.38;;;18.48;;
48241;SDS011;34041;51.812;4.622;2022-12-18T04:13:52;26.20;;;19.45;;
48241;SDS011;34041;51.812;4.622;2022-12-18T04:16:54;29.67;;;20.08;;
48241;SDS011;34041;51.812;4.622;2022-12-18T04:19:55;27.17;;;18.63;;
48241;SDS011;34041;51.812;4.622;2022-12-18T04:22:55;27.47;;;18.97;;
48241;SDS011;34041;51.812;4.622;2022-12-18T04:25:55;22.87;;;18.43;;
48241;SDS011;34041;51.812;4.622;2022-12-18T04:28:55;25.03;;;18.53;;
48241;SDS011;34041;51.812;4.622;2022-12-18T04:31:56;24.67;;;17.10;;
48241;SDS011;34041;51.812;4.622;2022-12-18T04:34:56;28.13;;;18.93;;
48241;SDS011;34041;51.812;4.622;2022-12-18T04:37:56;28.10;;;20.17;;
48241;SDS011;34041;51.812;4.622;2022-12-18T04:40:56;25.97;;;17.53;;
48241;SDS011;34041;51.812;4.622;2022-12-18T04:43:56;28.43;;;19.00;;
48241;SDS011;34041;51.812;4.622;2022-12-18T04:46:57;22.37;;;16.63;;
48241;SDS011;34041;51.812;4.622;2022-12-18T04:49:57;26.47;;;18.80;;
48241;SDS011;34041;51.812;4.622;2022-12-18T04:52:57;22.50;;;16.60;;
48241;SDS011;34041;51.812;4.622;2022-12-18T04:56:08;25.48;;;18.00;;
48241;SDS011;34041;51.812;4.622;2022-12-18T04:59:09;24.95;;;17.75;;
48241;SDS011;34041;51.812;4.622;2022-12-18T05:02:09;27.60;;;19.00;;
48241;SDS011;34041;51.812;4.622;2022-12-18T05:05:09;24.73;;;18.25;;
48241;SDS011;34041;51.812;4.622;2022-12-18T05:08:09;24.98;;;17.38;;
48241;SDS011;34041;51.812;4.622;2022-12-18T05:11:11;24.97;;;15.67;;
48241;SDS011;34041;51.812;4.622;2022-12-18T05:14:11;22.17;;;17.17;;
48241;SDS011;34041;51.812;4.622;2022-12-18T05:17:11;24.33;;;16.83;;
48241;SDS011;34041;51.812;4.622;2022-12-18T05:20:12;26.33;;;17.60;;
48241;SDS011;34041;51.812;4.622;2022-12-18T05:23:12;20.57;;;14.87;;
48241;SDS011;34041;51.812;4.622;2022-12-18T05:26:14;25.92;;;17.20;;
48241;SDS011;34041;51.812;4.622;2022-12-18T05:29:15;24.17;;;16.75;;
48241;SDS011;34041;51.812;4.622;2022-12-18T05:32:15;22.63;;;16.10;;
48241;SDS011;34041;51.812;4.622;2022-12-18T05:35:16;22.65;;;16.50;;
48241;SDS011;34041;51.812;4.622;2022-12-18T05:38:16;22.90;;;15.98;;
48241;SDS011;34041;51.812;4.622;2022-12-18T05:41:16;22.63;;;16.30;;
48241;SDS011;34041;51.812;4.622;2022-12-18T05:44:16;22.53;;;16.37;;
48241;SDS011;34041;51.812;4.622;2022-12-18T05:47:17;23.00;;;15.73;;
48241;SDS011;34041;51.812;4.622;2022-12-18T05:50:17;22.73;;;16.00;;
48241;SDS011;34041;51.812;4.622;2022-12-18T05:53:18;21.37;;;15.33;;
48241;SDS011;34041;51.812;4.622;2022-12-18T05:56:20;21.75;;;15.13;;
48241;SDS011;34041;51.812;4.622;2022-12-18T05:59:20;23.13;;;15.48;;
48241;SDS011;34041;51.812;4.622;2022-12-18T06:02:21;18.97;;;14.53;;
48241;SDS011;34041;51.812;4.622;2022-12-18T06:05:21;23.73;;;15.07;;
48241;SDS011;34041;51.812;4.622;2022-12-18T06:08:21;21.30;;;16.13;;
48241;SDS011;34041;51.812;4.622;2022-12-18T06:11:22;21.87;;;15.47;;
48241;SDS011;34041;51.812;4.622;2022-12-18T06:14:23;21.27;;;14.93;;
48241;SDS011;34041;51.812;4.622;2022-12-18T06:17:23;20.07;;;14.57;;
48241;SDS011;34041;51.812;4.622;2022-12-18T06:20:27;20.90;;;15.13;;
48241;SDS011;34041;51.812;4.622;2022-12-18T06:23:27;18.03;;;13.97;;
48241;SDS011;34041;51.812;4.622;2022-12-18T06:26:28;18.88;;;13.30;;
48241;SDS011;34041;51.812;4.622;2022-12-18T06:29:28;18.87;;;13.83;;
48241;SDS011;34041;51.812;4.622;2022-12-18T06:32:28;19.70;;;14.23;;
48241;SDS011;34041;51.812;4.622;2022-12-18T06:35:28;19.90;;;13.67;;
48241;SDS011;34041;51.812;4.622;2022-12-18T06:38:28;19.95;;;13.95;;
48241;SDS011;34041;51.812;4.622;2022-12-18T06:41:30;19.92;;;13.43;;
48241;SDS011;34041;51.812;4.622;2022-12-18T06:44:30;19.10;;;13.63;;
48241;SDS011;34041;51.812;4.622;2022-12-18T06:47:30;19.27;;;13.07;;
48241;SDS011;34041;51.812;4.622;2022-12-18T06:50:30;18.83;;;14.80;;
48241;SDS011;34041;51.812;4.622;2022-12-18T06:53:31;18.23;;;13.30;;
48241;SDS011;34041;51.812;4.622;2022-12-18T06:56:32;18.50;;;13.80;;
48241;SDS011;34041;51.812;4.622;2022-12-18T06:59:32;17.13;;;13.33;;
48241;SDS011;34041;51.812;4.622;2022-12-18T07:02:32;17.08;;;12.70;;
48241;SDS011;34041;51.812;4.622;2022-12-18T07:05:33;19.77;;;13.00;;
48241;SDS011;34041;51.812;4.622;2022-12-18T07:08:33;17.90;;;12.40;;
48241;SDS011;34041;51.812;4.622;2022-12-18T07:11:34;15.15;;;12.50;;
48241;SDS011;34041;51.812;4.622;2022-12-18T07:14:34;16.73;;;13.00;;
48241;SDS011;34041;51.812;4.622;2022-12-18T07:17:34;15.20;;;11.67;;
48241;SDS011;34041;51.812;4.622;2022-12-18T07:20:34;18.75;;;12.05;;
48241;SDS011;34041;51.812;4.622;2022-12-18T07:23:35;17.57;;;13.60;;
48241;SDS011;34041;51.812;4.622;2022-12-18T07:26:35;17.30;;;12.30;;
48241;SDS011;34041;51.812;4.622;2022-12-18T07:29:36;16.20;;;11.65;;
48241;SDS011;34041;51.812;4.622;2022-12-18T07:32:36;19.80;;;12.77;;
48241;SDS011;34041;51.812;4.622;2022-12-18T07:35:36;15.93;;;11.77;;
48241;SDS011;34041;51.812;4.622;2022-12-18T07:38:36;15.93;;;12.10;;
48241;SDS011;34041;51.812;4.622;2022-12-18T07:41:37;20.08;;;12.38;;
48241;SDS011;34041;51.812;4.622;2022-12-18T07:44:37;15.05;;;12.60;;
48241;SDS011;34041;51.812;4.622;2022-12-18T07:47:37;14.40;;;10.83;;
48241;SDS011;34041;51.812;4.622;2022-12-18T07:50:37;13.23;;;10.50;;
48241;SDS011;34041;51.812;4.622;2022-12-18T07:53:38;16.53;;;11.37;;
48241;SDS011;34041;51.812;4.622;2022-12-18T07:56:38;17.05;;;11.55;;
48241;SDS011;34041;51.812;4.622;2022-12-18T07:59:38;14.30;;;11.37;;
48241;SDS011;34041;51.812;4.622;2022-12-18T08:02:38;14.05;;;11.30;;
48241;SDS011;34041;51.812;4.622;2022-12-18T08:05:39;13.43;;;10.67;;
48241;SDS011;34041;51.812;4.622;2022-12-18T08:08:39;17.47;;;11.43;;
48241;SDS011;34041;51.812;4.622;2022-12-18T08:11:41;14.60;;;11.07;;
48241;SDS011;34041;51.812;4.622;2022-12-18T08:14:41;15.13;;;11.07;;
48241;SDS011;34041;51.812;4.622;2022-12-18T08:17:41;15.10;;;11.07;;
48241;SDS011;34041;51.812;4.622;2022-12-18T08:20:41;15.53;;;10.50;;
48241;SDS011;34041;51.812;4.622;2022-12-18T08:23:42;14.27;;;11.23;;
48241;SDS011;34041;51.812;4.622;2022-12-18T08:26:42;15.88;;;11.77;;
48241;SDS011;34041;51.812;4.622;2022-12-18T08:29:43;14.27;;;10.38;;
48241;SDS011;34041;51.812;4.622;2022-12-18T08:32:43;11.60;;;9.57;;
48241;SDS011;34041;51.812;4.622;2022-12-18T08:35:43;12.83;;;9.77;;
48241;SDS011;34041;51.812;4.622;2022-12-18T08:38:43;11.90;;;9.50;;
48241;SDS011;34041;51.812;4.622;2022-12-18T08:41:44;14.07;;;10.13;;
48241;SDS011;34041;51.812;4.622;2022-12-18T08:45:04;12.43;;;8.98;;
48241;SDS011;34041;51.812;4.622;2022-12-18T08:48:04;10.10;;;8.93;;
48241;SDS011;34041;51.812;4.622;2022-12-18T08:51:05;11.98;;;9.48;;
48241;SDS011;34041;51.812;4.622;2022-12-18T08:54:05;11.77;;;9.63;;
48241;SDS011;34041;51.812;4.622;2022-12-18T08:57:06;12.32;;;8.98;;
48241;SDS011;34041;51.812;4.622;2022-12-18T09:00:06;12.90;;;10.00;;
48241;SDS011;34041;51.812;4.622;2022-12-18T09:03:11;14.25;;;9.32;;
48241;SDS011;34041;51.812;4.622;2022-12-18T09:06:15;11.38;;;8.80;;
48241;SDS011;34041;51.812;4.622;2022-12-18T09:09:16;11.85;;;10.20;;
48241;SDS011;34041;51.812;4.622;2022-12-18T09:12:17;12.45;;;10.27;;
48241;SDS011;34041;51.812;4.622;2022-12-18T09:15:17;12.90;;;9.73;;
48241;SDS011;34041;51.812;4.622;2022-12-18T09:18:17;12.47;;;10.17;;
48241;SDS011;34041;51.812;4.622;2022-12-18T09:21:19;12.50;;;11.18;;
48241;SDS011;34041;51.812;4.622;2022-12-18T09:24:19;14.05;;;9.98;;
48241;SDS011;34041;51.812;4.622;2022-12-18T09:27:19;16.38;;;10.07;;
48241;SDS011;34041;51.812;4.622;2022-12-18T09:30:20;15.20;;;10.57;;
48241;SDS011;34041;51.812;4.622;2022-12-18T09:33:20;13.83;;;9.90;;
48241;SDS011;34041;51.812;4.622;2022-12-18T09:36:20;17.67;;;10.00;;
48241;SDS011;34041;51.812;4.622;2022-12-18T09:39:20;13.75;;;9.77;;
48241;SDS011;34041;51.812;4.622;2022-12-18T09:42:21;16.10;;;11.17;;
48241;SDS011;34041;51.812;4.622;2022-12-18T09:45:22;14.20;;;10.40;;
48241;SDS011;34041;51.812;4.622;2022-12-18T09:48:26;15.82;;;10.50;;
48241;SDS011;34041;51.812;4.622;2022-12-18T09:51:28;15.00;;;10.23;;
48241;SDS011;34041;51.812;4.622;2022-12-18T09:54:32;12.88;;;9.85;;
48241;SDS011;34041;51.812;4.622;2022-12-18T09:57:35;14.20;;;9.90;;
48241;SDS011;34041;51.812;4.622;2022-12-18T10:00:39;17.15;;;10.70;;
48241;SDS011;34041;51.812;4.622;2022-12-18T10:03:39;12.93;;;10.30;;
48241;SDS011;34041;51.812;4.622;2022-12-18T10:07:23;14.18;;;9.85;;
48241;SDS011;34041;51.812;4.622;2022-12-18T10:10:09;13.20;;;9.20;;
48241;SDS011;34041;51.812;4.622;2022-12-18T10:29:12;13.13;;;9.25;;
48241;SDS011;34041;51.812;4.622;2022-12-18T10:32:16;13.30;;;10.03;;
48241;SDS011;34041;51.812;4.622;2022-12-18T10:35:19;13.05;;;9.65;;
48241;SDS011;34041;51.812;4.622;2022-12-18T10:38:20;11.73;;;10.10;;
48241;SDS011;34041;51.812;4.622;2022-12-18T10:44:25;10.23;;;8.18;;
48241;SDS011;34041;51.812;4.622;2022-12-18T10:47:26;14.68;;;9.43;;
48241;SDS011;34041;51.812;4.622;2022-12-18T10:50:28;11.32;;;8.73;;
48241;SDS011;34041;51.812;4.622;2022-12-18T10:53:29;12.93;;;9.15;;
48241;SDS011;34041;51.812;4.622;2022-12-18T10:56:31;11.43;;;9.45;;
48241;SDS011;34041;51.812;4.622;2022-12-18T10:59:33;12.00;;;10.15;;
48241;SDS011;34041;51.812;4.622;2022-12-18T11:02:49;12.43;;;9.10;;
48241;SDS011;34041;51.812;4.622;2022-12-18T11:05:49;12.27;;;9.95;;
48241;SDS011;34041;51.812;4.622;2022-12-18T11:09:01;11.35;;;8.90;;
48241;SDS011;34041;51.812;4.622;2022-12-18T11:12:23;11.82;;;9.15;;
48241;SDS011;34041;51.812;4.622;2022-12-18T11:15:26;11.00;;;8.45;;
48241;SDS011;34041;51.812;4.622;2022-12-18T11:18:31;12.07;;;8.85;;
48241;SDS011;34041;51.812;4.622;2022-12-18T11:21:32;11.45;;;8.63;;
48241;SDS011;34041;51.812;4.622;2022-12-18T11:24:39;10.32;;;8.82;;
48241;SDS011;34041;51.812;4.622;2022-12-18T11:27:39;11.77;;;8.95;;
48241;SDS011;34041;51.812;4.622;2022-12-18T11:30:40;12.80;;;9.10;;
48241;SDS011;34041;51.812;4.622;2022-12-18T11:33:41;11.90;;;8.83;;
48241;SDS011;34041;51.812;4.622;2022-12-18T11:36:43;9.55;;;8.10;;
48241;SDS011;34041;51.812;4.622;2022-12-18T11:39:49;12.02;;;9.43;;
48241;SDS011;34041;51.812;4.622;2022-12-18T11:42:53;12.68;;;9.02;;
48241;SDS011;34041;51.812;4.622;2022-12-18T11:45:56;11.32;;;8.60;;
48241;SDS011;34041;51.812;4.622;2022-12-18T11:49:03;10.03;;;8.73;;
48241;SDS011;34041;51.812;4.622;2022-12-18T11:55:15;10.80;;;9.10;;
48241;SDS011;34041;51.812;4.622;2022-12-18T12:07:49;10.65;;;8.15;;
48241;SDS011;34041;51.812;4.622;2022-12-18T12:14:15;11.98;;;9.80;;
48241;SDS011;34041;51.812;4.622;2022-12-18T12:17:27;11.63;;;8.40;;
48241;SDS011;34041;51.812;4.622;2022-12-18T12:20:42;12.32;;;9.30;;
48241;SDS011;34041;51.812;4.622;2022-12-18T12:30:22;10.98;;;8.45;;
48241;SDS011;34041;51.812;4.622;2022-12-18T12:39:35;10.25;;;9.13;;
48241;SDS011;34041;51.812;4.622;2022-12-18T12:42:39;11.73;;;9.60;;
48241;SDS011;34041;51.812;4.622;2022-12-18T12:46:07;11.95;;;10.50;;
48241;SDS011;34041;51.812;4.622;2022-12-18T12:49:12;11.20;;;8.98;;
48241;SDS011;34041;51.812;4.622;2022-12-18T12:52:15;12.57;;;10.25;;
48241;SDS011;34041;51.812;4.622;2022-12-18T12:55:17;12.05;;;9.32;;
48241;SDS011;34041;51.812;4.622;2022-12-18T13:04:40;12.05;;;8.93;;
48241;SDS011;34041;51.812;4.622;2022-12-18T13:07:53;10.48;;;8.90;;
48241;SDS011;34041;51.812;4.622;2022-12-18T13:10:54;10.90;;;9.35;;
48241;SDS011;34041;51.812;4.622;2022-12-18T13:14:33;13.85;;;10.63;;
48241;SDS011;34041;51.812;4.622;2022-12-18T13:17:33;11.32;;;8.85;;
48241;SDS011;34041;51.812;4.622;2022-12-18T13:20:34;11.53;;;9.30;;
48241;SDS011;34041;51.812;4.622;2022-12-18T13:23:36;11.88;;;8.82;;
48241;SDS011;34041;51.812;4.622;2022-12-18T13:26:37;11.60;;;9.35;;
48241;SDS011;34041;51.812;4.622;2022-12-18T13:29:44;12.63;;;9.60;;
48241;SDS011;34041;51.812;4.622;2022-12-18T13:32:44;11.02;;;9.10;;
48241;SDS011;34041;51.812;4.622;2022-12-18T13:39:31;12.48;;;9.93;;
48241;SDS011;34041;51.812;4.622;2022-12-18T13:42:31;12.07;;;8.75;;
48241;SDS011;34041;51.812;4.622;2022-12-18T13:49:04;11.38;;;9.50;;
48241;SDS011;34041;51.812;4.622;2022-12-18T13:52:23;11.40;;;8.85;;
48241;SDS011;34041;51.812;4.622;2022-12-18T13:55:24;12.30;;;9.65;;
48241;SDS011;34041;51.812;4.622;2022-12-18T13:58:24;10.10;;;9.05;;
48241;SDS011;34041;51.812;4.622;2022-12-18T14:01:25;12.25;;;9.25;;
48241;SDS011;34041;51.812;4.622;2022-12-18T14:04:34;11.88;;;9.93;;
48241;SDS011;34041;51.812;4.622;2022-12-18T14:07:35;10.05;;;8.52;;
48241;SDS011;34041;51.812;4.622;2022-12-18T14:10:39;14.27;;;10.10;;
48241;SDS011;34041;51.812;4.622;2022-12-18T14:13:40;13.35;;;9.98;;
48241;SDS011;34041;51.812;4.622;2022-12-18T14:16:42;11.95;;;9.23;;
48241;SDS011;34041;51.812;4.622;2022-12-18T14:19:43;11.48;;;9.73;;
48241;SDS011;34041;51.812;4.622;2022-12-18T14:22:44;12.35;;;10.18;;
48241;SDS011;34041;51.812;4.622;2022-12-18T14:25:46;12.65;;;9.40;;
48241;SDS011;34041;51.812;4.622;2022-12-18T14:28:47;12.85;;;9.85;;
48241;SDS011;34041;51.812;4.622;2022-12-18T14:35:12;12.23;;;9.93;;
48241;SDS011;34041;51.812;4.622;2022-12-18T14:41:17;10.32;;;8.63;;
48241;SDS011;34041;51.812;4.622;2022-12-18T14:44:18;12.63;;;9.05;;
48241;SDS011;34041;51.812;4.622;2022-12-18T14:47:18;12.30;;;10.02;;
48241;SDS011;34041;51.812;4.622;2022-12-18T14:50:18;12.77;;;10.00;;
48241;SDS011;34041;51.812;4.622;2022-12-18T14:53:31;11.60;;;9.52;;
48241;SDS011;34041;51.812;4.622;2022-12-18T14:56:34;11.27;;;8.70;;
48241;SDS011;34041;51.812;4.622;2022-12-18T14:59:34;12.25;;;9.73;;
48241;SDS011;34041;51.812;4.622;2022-12-18T15:02:34;12.33;;;9.37;;
48241;SDS011;34041;51.812;4.622;2022-12-18T15:05:35;11.90;;;9.98;;
48241;SDS011;34041;51.812;4.622;2022-12-18T15:08:36;13.13;;;10.38;;
48241;SDS011;34041;51.812;4.622;2022-12-18T15:14:40;10.77;;;9.20;;
48241;SDS011;34041;51.812;4.622;2022-12-18T15:17:40;11.63;;;9.13;;
48241;SDS011;34041;51.812;4.622;2022-12-18T15:20:45;11.50;;;9.43;;
48241;SDS011;34041;51.812;4.622;2022-12-18T15:23:47;11.88;;;9.55;;
48241;SDS011;34041;51.812;4.622;2022-12-18T15:26:48;12.48;;;9.32;;
48241;SDS011;34041;51.812;4.622;2022-12-18T15:33:18;11.80;;;9.88;;
48241;SDS011;34041;51.812;4.622;2022-12-18T15:36:22;11.07;;;9.45;;
48241;SDS011;34041;51.812;4.622;2022-12-18T15:39:23;13.48;;;11.10;;
48241;SDS011;34041;51.812;4.622;2022-12-18T15:42:23;13.77;;;10.85;;
48241;SDS011;34041;51.812;4.622;2022-12-18T15:45:42;13.60;;;10.95;;
48241;SDS011;34041;51.812;4.622;2022-12-18T15:48:43;12.23;;;10.87;;
48241;SDS011;34041;51.812;4.622;2022-12-18T15:51:43;12.70;;;11.30;;
48241;SDS011;34041;51.812;4.622;2022-12-18T15:54:44;15.10;;;10.65;;
48241;SDS011;34041;51.812;4.622;2022-12-18T15:58:03;30.42;;;22.67;;
48241;SDS011;34041;51.812;4.622;2022-12-18T16:01:04;18.83;;;14.88;;
48241;SDS011;34041;51.812;4.622;2022-12-18T16:04:04;17.15;;;13.60;;
48241;SDS011;34041;51.812;4.622;2022-12-18T16:07:04;17.83;;;13.70;;
48241;SDS011;34041;51.812;4.622;2022-12-18T16:10:05;16.07;;;12.10;;
48241;SDS011;34041;51.812;4.622;2022-12-18T16:13:06;16.73;;;13.00;;
48241;SDS011;34041;51.812;4.622;2022-12-18T16:16:07;17.67;;;11.80;;
48241;SDS011;34041;51.812;4.622;2022-12-18T16:19:08;15.30;;;12.80;;
48241;SDS011;34041;51.812;4.622;2022-12-18T16:25:38;15.20;;;12.82;;
48241;SDS011;34041;51.812;4.622;2022-12-18T16:28:38;16.08;;;12.77;;
48241;SDS011;34041;51.812;4.622;2022-12-18T16:31:39;14.25;;;10.68;;
48241;SDS011;34041;51.812;4.622;2022-12-18T16:34:39;16.38;;;12.88;;
48241;SDS011;34041;51.812;4.622;2022-12-18T16:37:40;13.60;;;11.50;;
48241;SDS011;34041;51.812;4.622;2022-12-18T16:40:40;14.95;;;10.82;;
48241;SDS011;34041;51.812;4.622;2022-12-18T16:44:00;14.80;;;10.80;;
48241;SDS011;34041;51.812;4.622;2022-12-18T16:47:01;15.68;;;11.00;;
48241;SDS011;34041;51.812;4.622;2022-12-18T16:50:02;13.85;;;10.95;;
48241;SDS011;34041;51.812;4.622;2022-12-18T16:53:02;14.18;;;10.75;;
48241;SDS011;34041;51.812;4.622;2022-12-18T16:56:02;17.87;;;11.20;;
48241;SDS011;34041;51.812;4.622;2022-12-18T19:08:34;17.73;;;11.18;;
48241;SDS011;34041;51.812;4.622;2022-12-18T19:11:34;14.32;;;11.02;;
48241;SDS011;34041;51.812;4.622;2022-12-18T19:14:53;13.18;;;10.40;;
48241;SDS011;34041;51.812;4.622;2022-12-18T19:17:53;15.50;;;11.35;;
48241;SDS011;34041;51.812;4.622;2022-12-18T19:20:54;13.97;;;11.50;;
48241;SDS011;34041;51.812;4.622;2022-12-18T19:23:55;14.57;;;11.90;;
48241;SDS011;34041;51.812;4.622;2022-12-18T19:26:55;14.03;;;11.07;;
48241;SDS011;34041;51.812;4.622;2022-12-18T19:29:55;13.93;;;11.70;;
48241;SDS011;34041;51.812;4.622;2022-12-18T19:32:56;16.10;;;11.33;;
48241;SDS011;34041;51.812;4.622;2022-12-18T19:35:56;15.17;;;11.40;;
48241;SDS011;34041;51.812;4.622;2022-12-18T19:38:57;14.77;;;11.27;;
48241;SDS011;34041;51.812;4.622;2022-12-18T19:41:58;15.77;;;11.30;;
48241;SDS011;34041;51.812;4.622;2022-12-18T19:44:58;15.30;;;11.23;;
48241;SDS011;34041;51.812;4.622;2022-12-18T19:47:58;17.17;;;12.73;;
48241;SDS011;34041;51.812;4.622;2022-12-18T19:51:09;15.80;;;11.88;;
48241;SDS011;34041;51.812;4.622;2022-12-18T19:54:10;16.60;;;12.27;;
48241;SDS011;34041;51.812;4.622;2022-12-18T19:57:10;16.25;;;13.23;;
48241;SDS011;34041;51.812;4.622;2022-12-18T20:00:11;15.77;;;12.80;;
48241;SDS011;34041;51.812;4.622;2022-12-18T20:03:11;15.25;;;11.68;;
48241;SDS011;34041;51.812;4.622;2022-12-18T20:09:12;16.92;;;12.45;;
48241;SDS011;34041;51.812;4.622;2022-12-18T20:12:12;16.25;;;11.77;;
48241;SDS011;34041;51.812;4.622;2022-12-18T20:15:13;16.88;;;12.25;;
48241;SDS011;34041;51.812;4.622;2022-12-18T20:18:13;15.25;;;11.95;;
48241;SDS011;34041;51.812;4.622;2022-12-18T20:21:13;15.63;;;12.20;;
48241;SDS011;34041;51.812;4.622;2022-12-18T20:24:14;14.48;;;12.30;;
48241;SDS011;34041;51.812;4.622;2022-12-18T20:27:14;15.40;;;11.50;;
48241;SDS011;34041;51.812;4.622;2022-12-18T20:30:14;16.03;;;12.07;;
48241;SDS011;34041;51.812;4.622;2022-12-18T20:33:15;13.48;;;11.18;;
48241;SDS011;34041;51.812;4.622;2022-12-18T20:36:17;16.30;;;12.80;;
48241;SDS011;34041;51.812;4.622;2022-12-18T20:39:17;13.68;;;10.85;;
48241;SDS011;34041;51.812;4.622;2022-12-18T20:42:18;14.43;;;11.80;;
48241;SDS011;34041;51.812;4.622;2022-12-18T20:45:18;15.60;;;12.38;;
48241;SDS011;34041;51.812;4.622;2022-12-18T20:48:18;15.00;;;12.15;;
48241;SDS011;34041;51.812;4.622;2022-12-18T20:51:19;14.90;;;11.88;;
48241;SDS011;34041;51.812;4.622;2022-12-18T20:54:20;13.80;;;11.52;;
48241;SDS011;34041;51.812;4.622;2022-12-18T20:57:20;14.45;;;12.25;;
48241;SDS011;34041;51.812;4.622;2022-12-18T21:00:21;14.63;;;12.45;;
48241;SDS011;34041;51.812;4.622;2022-12-18T21:03:21;15.60;;;12.38;;
48241;SDS011;34041;51.812;4.622;2022-12-18T21:06:21;17.53;;;13.57;;
48241;SDS011;34041;51.812;4.622;2022-12-18T21:09:22;17.38;;;13.25;;
48241;SDS011;34041;51.812;4.622;2022-12-18T21:12:23;19.27;;;14.75;;
48241;SDS011;34041;51.812;4.622;2022-12-18T21:15:40;17.42;;;12.65;;
48241;SDS011;34041;51.812;4.622;2022-12-18T21:18:40;17.17;;;12.93;;
48241;SDS011;34041;51.812;4.622;2022-12-18T21:21:40;17.10;;;13.47;;
48241;SDS011;34041;51.812;4.622;2022-12-18T21:24:41;17.20;;;12.65;;
48241;SDS011;34041;51.812;4.622;2022-12-18T21:27:41;17.20;;;12.60;;
48241;SDS011;34041;51.812;4.622;2022-12-18T21:30:42;18.95;;;13.27;;
48241;SDS011;34041;51.812;4.622;2022-12-18T21:33:42;17.17;;;12.68;;
48241;SDS011;34041;51.812;4.622;2022-12-18T21:36:43;14.63;;;11.77;;
48241;SDS011;34041;51.812;4.622;2022-12-18T21:39:43;16.80;;;12.95;;